Time;durP1;ratioP1;P1;durP2;ratioP2;P2;SDS_P1;SDS_P2;PMS_P1;PMS_P2;Temp;Humidity;BMP_temperature;BMP_pressure;BME280_temperature;BME280_humidity;BME280_pressure;Samples;Min_cycle;Max_cycle;Signal;HPM_P1;HPM_P2
2022/07/12 00:01:33;;;;;;;14.83;13.47;;;19.90;99.90;;;;;;5010497;28;20458;-81
2022/07/12 00:03:59;;;;;;;13.20;12.00;;;20.00;99.90;;;;;;5010214;28;20488;-82
2022/07/12 00:06:26;;;;;;;12.17;11.07;;;20.10;99.90;;;;;;5007380;28;20541;-82
2022/07/12 00:08:53;;;;;;;13.17;12.00;;;20.10;99.90;;;;;;5010342;28;20474;-82
2022/07/12 00:11:19;;;;;;;11.83;10.63;;;20.10;99.90;;;;;;5010237;28;20570;-83
2022/07/12 00:13:46;;;;;;;13.47;12.27;;;20.10;99.90;;;;;;5009663;28;20468;-82
2022/07/12 00:16:13;;;;;;;13.13;11.90;;;20.10;99.90;;;;;;5007666;28;20458;-82
2022/07/12 00:18:43;;;;;;;13.50;12.20;;;20.10;99.90;;;;;;5008802;28;20514;-82
2022/07/12 00:21:12;;;;;;;12.73;11.63;;;20.20;99.90;;;;;;5008772;28;20450;-82
2022/07/12 00:23:38;;;;;;;12.30;11.20;;;20.00;99.90;;;;;;5009781;28;20490;-82
2022/07/12 00:26:05;;;;;;;11.93;10.83;;;20.00;99.90;;;;;;5005127;28;20451;-82
2022/07/12 00:28:32;;;;;;;12.77;11.57;;;19.90;99.90;;;;;;5011382;28;20474;-81
2022/07/12 00:30:59;;;;;;;12.67;11.47;;;19.70;99.90;;;;;;5006415;28;20447;-81
2022/07/12 00:33:27;;;;;;;12.87;11.77;;;19.60;99.90;;;;;;5009782;28;20955;-82
2022/07/12 00:35:54;;;;;;;13.70;12.60;;;19.70;99.90;;;;;;5009020;28;20459;-82
2022/07/12 00:38:20;;;;;;;14.17;12.70;;;19.70;99.90;;;;;;5011382;28;20495;-83
2022/07/12 00:40:49;;;;;;;14.40;12.97;;;19.80;99.90;;;;;;5005704;28;21044;-83
2022/07/12 00:43:16;;;;;;;15.60;14.00;;;19.60;99.90;;;;;;5005588;28;20506;-83
2022/07/12 00:45:42;;;;;;;16.67;15.10;;;19.60;99.90;;;;;;5012284;28;20801;-83
2022/07/12 00:48:10;;;;;;;15.90;14.50;;;19.70;99.90;;;;;;5007297;28;20489;-81
2022/07/12 00:50:37;;;;;;;15.73;14.27;;;19.60;99.90;;;;;;5010654;28;20464;-82
2022/07/12 00:53:04;;;;;;;17.23;15.60;;;19.40;99.90;;;;;;5005886;28;20851;-81
2022/07/12 00:55:31;;;;;;;17.43;15.63;;;19.30;99.90;;;;;;5006149;28;20624;-82
2022/07/12 00:57:57;;;;;;;17.03;15.33;;;19.30;99.90;;;;;;5007857;28;20470;-82
2022/07/12 01:00:27;;;;;;;17.20;15.50;;;19.30;99.90;;;;;;5005079;28;20497;-81
2022/07/12 01:02:56;;;;;;;17.47;15.70;;;19.30;99.90;;;;;;5009719;28;20475;-82
2022/07/12 01:05:23;;;;;;;20.10;18.10;;;19.30;99.90;;;;;;5002232;28;20462;-81
2022/07/12 01:07:50;;;;;;;20.07;15.57;;;19.10;99.90;;;;;;5009340;28;20586;-82
2022/07/12 01:10:17;;;;;;;18.33;16.57;;;19.00;99.90;;;;;;5005895;28;20952;-82
2022/07/12 01:12:44;;;;;;;18.67;16.77;;;19.00;99.90;;;;;;5007339;28;20458;-82
2022/07/12 01:15:11;;;;;;;19.20;17.20;;;18.90;99.90;;;;;;5008839;28;20809;-82
2022/07/12 01:17:38;;;;;;;20.70;16.97;;;18.90;99.90;;;;;;5007844;28;21046;-81
2022/07/12 01:20:06;;;;;;;18.60;16.53;;;18.80;99.90;;;;;;5001963;28;20553;-82
2022/07/12 01:22:35;;;;;;;19.23;17.23;;;18.80;99.90;;;;;;5004770;28;20822;-82
2022/07/12 01:25:04;;;;;;;18.63;16.67;;;18.60;99.90;;;;;;5004555;28;20531;-83
2022/07/12 01:27:31;;;;;;;18.17;16.27;;;18.70;99.90;;;;;;5007717;28;20476;-82
2022/07/12 01:29:58;;;;;;;17.20;15.40;;;18.60;99.90;;;;;;5009245;28;20454;-82
2022/07/12 01:32:25;;;;;;;18.73;16.83;;;18.80;99.90;;;;;;5004560;28;20467;-82
2022/07/12 01:34:54;;;;;;;17.10;15.30;;;18.80;99.90;;;;;;5004058;28;20887;-81
2022/07/12 01:37:22;;;;;;;17.67;15.77;;;18.70;99.90;;;;;;5010489;28;20492;-82
2022/07/12 01:39:51;;;;;;;17.53;15.60;;;18.70;99.90;;;;;;5007344;28;20466;-81
2022/07/12 01:42:19;;;;;;;18.10;16.17;;;18.70;99.90;;;;;;5007866;28;20477;-83
2022/07/12 01:44:49;;;;;;;19.00;17.20;;;18.80;99.90;;;;;;5011922;28;20497;-82
2022/07/12 01:47:17;;;;;;;18.20;16.30;;;18.80;99.90;;;;;;5018220;28;20470;-82
2022/07/12 01:49:44;;;;;;;16.53;14.80;;;18.70;99.90;;;;;;5005088;28;20462;-82
2022/07/12 01:52:12;;;;;;;17.57;15.67;;;18.60;99.90;;;;;;5007902;28;20453;-82
2022/07/12 01:54:39;;;;;;;17.57;15.83;;;18.60;99.90;;;;;;5007716;28;21008;-80
2022/07/12 01:57:06;;;;;;;16.50;14.70;;;18.50;99.90;;;;;;5008390;28;20500;-82
2022/07/12 01:59:34;;;;;;;16.70;14.90;;;18.40;99.90;;;;;;5004127;28;20462;-81
2022/07/12 02:02:01;;;;;;;17.10;15.40;;;18.10;99.90;;;;;;5007228;28;20462;-82
2022/07/12 02:04:28;;;;;;;17.57;15.87;;;18.10;99.90;;;;;;5005696;28;20478;-82
2022/07/12 02:06:55;;;;;;;17.57;15.70;;;18.20;99.90;;;;;;5009305;28;20952;-83
2022/07/12 02:09:22;;;;;;;17.90;16.10;;;18.20;99.90;;;;;;5005923;28;20450;-82
2022/07/12 02:11:49;;;;;;;19.40;17.50;;;18.10;99.90;;;;;;5001461;28;20458;-82
2022/07/12 02:14:17;;;;;;;17.53;15.73;;;18.10;99.90;;;;;;5003370;28;20462;-82
2022/07/12 02:16:43;;;;;;;19.00;17.00;;;18.00;99.90;;;;;;5001957;28;20466;-82
2022/07/12 02:19:12;;;;;;;21.00;17.63;;;18.10;99.90;;;;;;5006247;28;20482;-82
2022/07/12 02:21:39;;;;;;;17.90;16.10;;;18.00;99.90;;;;;;5002121;28;20504;-82
2022/07/12 02:24:08;;;;;;;18.43;16.73;;;18.00;99.90;;;;;;5025572;28;20486;-83
2022/07/12 02:26:36;;;;;;;19.07;16.70;;;17.90;99.90;;;;;;5006877;28;20446;-83
2022/07/12 02:29:04;;;;;;;18.83;16.50;;;18.00;99.90;;;;;;5006754;28;20466;-82
2022/07/12 02:31:31;;;;;;;20.63;16.27;;;18.00;99.90;;;;;;5002492;28;20446;-82
2022/07/12 02:33:58;;;;;;;16.97;15.27;;;17.80;99.90;;;;;;5005887;28;20459;-82
2022/07/12 02:36:25;;;;;;;17.27;15.50;;;17.80;99.90;;;;;;5014926;28;20458;-82
2022/07/12 02:38:51;;;;;;;17.87;16.13;;;17.90;99.90;;;;;;5004412;28;20482;-83
2022/07/12 02:41:18;;;;;;;17.87;15.97;;;17.80;99.90;;;;;;5005033;28;20459;-82
2022/07/12 02:43:45;;;;;;;17.80;16.00;;;18.00;99.90;;;;;;5006272;28;20490;-79
2022/07/12 02:46:13;;;;;;;16.37;14.90;;;18.00;99.90;;;;;;5004172;28;20455;-81
2022/07/12 02:48:42;;;;;;;18.60;15.77;;;17.90;99.90;;;;;;5002210;28;20475;-82
2022/07/12 02:51:10;;;;;;;17.87;16.00;;;18.00;99.90;;;;;;5005322;28;20459;-83
2022/07/12 02:53:37;;;;;;;16.20;14.50;;;18.00;99.90;;;;;;5007810;28;20506;-82
2022/07/12 02:56:08;;;;;;;18.90;15.30;;;18.10;99.90;;;;;;5005772;28;20474;-82
2022/07/12 02:58:36;;;;;;;18.87;15.73;;;18.10;99.90;;;;;;5003316;28;20532;-82
2022/07/12 03:01:04;;;;;;;17.00;15.50;;;18.10;99.90;;;;;;5010271;28;20513;-82
2022/07/12 03:03:30;;;;;;;17.57;15.73;;;18.00;99.90;;;;;;5006985;28;20462;-83
2022/07/12 03:05:58;;;;;;;17.43;15.63;;;17.90;99.90;;;;;;5005940;28;20461;-82
2022/07/12 03:08:24;;;;;;;15.60;14.00;;;18.00;99.90;;;;;;5005168;28;20533;-82
2022/07/12 03:10:51;;;;;;;16.47;14.93;;;17.80;99.90;;;;;;5003227;28;20451;-82
2022/07/12 03:13:18;;;;;;;15.57;14.17;;;17.70;99.90;;;;;;5001776;28;20450;-83
2022/07/12 03:15:45;;;;;;;16.10;14.40;;;17.70;99.90;;;;;;5001565;28;20463;-82
2022/07/12 03:18:13;;;;;;;16.63;14.97;;;17.60;99.90;;;;;;5008364;28;20547;-82
2022/07/12 03:20:40;;;;;;;17.83;15.87;;;17.50;99.90;;;;;;5004088;28;20469;-82
2022/07/12 03:23:07;;;;;;;16.37;14.70;;;17.70;99.90;;;;;;5006022;28;20829;-83
2022/07/12 03:25:35;;;;;;;15.60;14.17;;;17.60;99.90;;;;;;5005362;28;20481;-83
2022/07/12 03:28:02;;;;;;;17.77;16.00;;;17.70;99.90;;;;;;5006117;28;21010;-83
2022/07/12 03:30:29;;;;;;;16.47;14.83;;;17.70;99.90;;;;;;5009693;28;20458;-83
2022/07/12 03:32:55;;;;;;;16.70;15.07;;;17.60;99.90;;;;;;5003331;28;20490;-82
2022/07/12 03:35:23;;;;;;;19.13;17.27;;;17.70;99.90;;;;;;5004851;28;20524;-82
2022/07/12 03:37:51;;;;;;;17.10;15.13;;;17.70;99.90;;;;;;5004935;28;20490;-82
2022/07/12 03:40:20;;;;;;;17.50;15.70;;;17.60;99.90;;;;;;4998443;28;20459;-81
2022/07/12 03:42:48;;;;;;;18.37;16.57;;;17.60;99.90;;;;;;5001852;28;20978;-82
2022/07/12 03:45:16;;;;;;;18.07;15.43;;;17.60;99.90;;;;;;5005991;28;20565;-81
2022/07/12 03:47:42;;;;;;;18.70;15.80;;;17.50;99.90;;;;;;5000867;28;20580;-80
2022/07/12 03:50:12;;;;;;;17.07;15.27;;;17.40;99.90;;;;;;5002622;28;20568;-81
2022/07/12 03:52:40;;;;;;;16.70;15.00;;;17.30;99.90;;;;;;5004237;28;20483;-81
2022/07/12 03:55:08;;;;;;;17.40;15.60;;;17.30;99.90;;;;;;5011877;28;20802;-81
2022/07/12 03:57:35;;;;;;;17.13;15.40;;;17.50;99.90;;;;;;5003942;28;20477;-82
2022/07/12 04:00:04;;;;;;;17.30;15.60;;;17.60;99.90;;;;;;5013643;28;20967;-81
2022/07/12 04:02:31;;;;;;;16.87;15.27;;;17.50;99.90;;;;;;5011710;28;20816;-81
2022/07/12 04:04:57;;;;;;;17.67;15.10;;;17.40;99.90;;;;;;5009963;28;20885;-82
2022/07/12 04:07:24;;;;;;;16.47;14.70;;;17.40;99.90;;;;;;5005859;28;20521;-83
2022/07/12 04:09:51;;;;;;;17.77;14.40;;;17.20;99.90;;;;;;5009090;28;20508;-82
2022/07/12 04:12:17;;;;;;;18.47;14.27;;;17.20;99.90;;;;;;5012560;28;20442;-81
2022/07/12 04:14:44;;;;;;;21.57;14.93;;;17.10;99.90;;;;;;5005590;28;20477;-80
2022/07/12 04:17:10;;;;;;;20.83;14.53;;;17.30;99.90;;;;;;5012898;28;20462;-81
2022/07/12 04:19:37;;;;;;;16.73;15.17;;;17.20;99.90;;;;;;5002748;28;20459;-82
2022/07/12 04:22:04;;;;;;;16.90;14.97;;;17.40;99.90;;;;;;5010951;28;20909;-82
2022/07/12 04:24:30;;;;;;;18.63;14.00;;;17.30;99.90;;;;;;5006102;28;20938;-82
2022/07/12 04:26:57;;;;;;;15.70;14.00;;;17.40;99.90;;;;;;5008113;28;20447;-81
2022/07/12 04:29:24;;;;;;;16.67;14.17;;;17.50;99.90;;;;;;5007578;28;20466;-82
2022/07/12 04:31:50;;;;;;;17.10;15.30;;;17.50;99.90;;;;;;5011271;28;20481;-82
2022/07/12 04:34:17;;;;;;;16.23;14.57;;;17.50;99.90;;;;;;5005739;28;20828;-81
2022/07/12 04:36:44;;;;;;;13.37;12.07;;;17.40;99.90;;;;;;5010181;28;20957;-82
2022/07/12 04:39:11;;;;;;;16.80;15.10;;;17.50;99.90;;;;;;5007684;28;20478;-82
2022/07/12 04:41:38;;;;;;;15.23;13.80;;;17.50;99.90;;;;;;5011978;28;20455;-82
2022/07/12 04:44:08;;;;;;;15.80;14.10;;;17.80;99.90;;;;;;5013195;28;20464;-81
2022/07/12 04:46:35;;;;;;;14.70;13.30;;;17.70;99.90;;;;;;5006123;28;20443;-80
2022/07/12 04:49:02;;;;;;;17.73;15.93;;;18.00;99.90;;;;;;5016332;28;20492;-79
2022/07/12 04:51:28;;;;;;;16.73;15.03;;;18.00;99.90;;;;;;5007986;28;20458;-80
2022/07/12 04:53:55;;;;;;;16.77;15.17;;;17.90;99.90;;;;;;5008192;28;20461;-82
2022/07/12 04:56:22;;;;;;;16.03;14.43;;;17.80;99.90;;;;;;5012997;28;20458;-82
2022/07/12 04:58:48;;;;;;;16.10;14.60;;;17.90;99.90;;;;;;5010906;28;20822;-82
2022/07/12 05:01:16;;;;;;;17.03;15.30;;;17.90;99.90;;;;;;5010575;28;20533;-79
2022/07/12 05:03:43;;;;;;;17.00;14.97;;;17.90;99.90;;;;;;5011778;28;20451;-81
2022/07/12 05:06:09;;;;;;;18.30;15.57;;;18.10;99.90;;;;;;5007031;28;20479;-79
2022/07/12 05:08:36;;;;;;;16.97;14.20;;;18.10;99.90;;;;;;5021937;28;20480;-81
2022/07/12 05:11:03;;;;;;;18.33;16.33;;;18.00;99.90;;;;;;5015191;28;20451;-82
2022/07/12 05:13:29;;;;;;;20.60;17.37;;;18.00;99.90;;;;;;5019778;28;20441;-82
2022/07/12 05:16:32;;;;;;;18.73;15.97;;;17.90;99.90;;;;;;5030659;28;20457;-83
2022/07/12 05:19:24;;;;;;;15.63;14.03;;;17.80;99.90;;;;;;5033902;28;20417;-82
2022/07/12 05:21:57;;;;;;;17.43;15.70;;;17.80;99.90;;;;;;5034513;28;20446;-82
2022/07/12 05:24:24;;;;;;;18.80;16.80;;;17.90;99.90;;;;;;5029651;28;20470;-82
2022/07/12 05:26:50;;;;;;;18.03;16.13;;;17.90;99.90;;;;;;5032371;28;20466;-83
2022/07/12 05:29:17;;;;;;;18.27;16.20;;;17.90;99.90;;;;;;5018160;28;20446;-82
2022/07/12 05:31:44;;;;;;;18.50;16.70;;;17.90;99.90;;;;;;5011661;28;20450;-83
2022/07/12 05:34:10;;;;;;;18.10;16.33;;;17.80;99.90;;;;;;5011768;28;20819;-81
2022/07/12 05:36:37;;;;;;;18.30;16.50;;;17.80;99.90;;;;;;5008192;28;20462;-80
2022/07/12 05:39:04;;;;;;;19.30;17.20;;;17.80;99.90;;;;;;5007292;28;20479;-81
2022/07/12 05:41:31;;;;;;;19.10;17.10;;;17.70;99.90;;;;;;5009702;28;20481;-80
2022/07/12 05:43:58;;;;;;;20.77;18.57;;;17.80;99.90;;;;;;5010285;28;20450;-81
2022/07/12 05:46:24;;;;;;;21.43;17.83;;;17.80;99.90;;;;;;5007924;28;20483;-81
2022/07/12 05:48:53;;;;;;;19.70;17.67;;;17.90;99.90;;;;;;5001998;28;20573;-81
2022/07/12 05:54:04;;;;;;;19.90;17.80;;;17.80;99.90;;;;;;5008099;28;20599;-82
2022/07/12 05:56:31;;;;;;;22.47;20.17;;;17.80;99.90;;;;;;5009520;28;20452;-81
2022/07/12 05:58:58;;;;;;;19.93;17.83;;;17.90;99.90;;;;;;5010463;28;20469;-82
2022/07/12 06:01:25;;;;;;;22.67;20.00;;;17.90;99.90;;;;;;5008078;28;20465;-81
2022/07/12 06:03:55;;;;;;;20.83;18.63;;;17.90;99.90;;;;;;5009410;28;20455;-82
2022/07/12 06:06:21;;;;;;;22.17;19.77;;;17.90;99.90;;;;;;5010765;28;20488;-81
2022/07/12 06:08:55;;;;;;;21.20;18.80;;;17.90;99.90;;;;;;5010101;28;20532;-81
2022/07/12 06:11:22;;;;;;;19.27;17.17;;;17.90;99.90;;;;;;5007433;28;20891;-81
2022/07/12 06:13:50;;;;;;;20.20;18.10;;;18.10;99.90;;;;;;5007745;28;20482;-81
2022/07/12 06:16:17;;;;;;;20.30;18.30;;;18.10;99.90;;;;;;5012598;28;20458;-81
2022/07/12 06:18:43;;;;;;;20.63;18.43;;;18.30;99.90;;;;;;5006676;28;20471;-82
2022/07/12 06:21:10;;;;;;;21.50;19.20;;;18.50;99.90;;;;;;5002407;28;20518;-82
2022/07/12 06:23:36;;;;;;;20.13;18.00;;;18.30;99.90;;;;;;5014968;28;20508;-82
2022/07/12 06:26:03;;;;;;;20.37;18.30;;;18.40;99.90;;;;;;5016040;28;20481;-81
2022/07/12 06:28:30;;;;;;;19.43;16.50;;;18.30;99.90;;;;;;5014026;28;20710;-82
2022/07/12 06:30:56;;;;;;;18.13;16.23;;;18.40;99.90;;;;;;5018520;28;20480;-82
2022/07/12 06:33:23;;;;;;;19.80;17.70;;;18.60;99.90;;;;;;5022073;28;20868;-82
2022/07/12 06:35:50;;;;;;;19.97;17.97;;;18.60;99.90;;;;;;5012230;28;20454;-81
2022/07/12 06:38:16;;;;;;;19.07;17.17;;;18.70;99.90;;;;;;4998001;28;20483;-80
2022/07/12 06:40:43;;;;;;;19.40;17.40;;;18.80;99.90;;;;;;5002878;28;20550;-81
2022/07/12 06:43:11;;;;;;;21.63;19.30;;;18.90;99.90;;;;;;5010569;28;20454;-81
2022/07/12 06:45:39;;;;;;;19.37;17.37;;;19.10;99.90;;;;;;5008518;28;20858;-82
2022/07/12 06:48:06;;;;;;;20.83;18.83;;;19.00;99.90;;;;;;5009026;28;20544;-81
2022/07/12 06:50:35;;;;;;;20.33;18.33;;;19.20;99.90;;;;;;5008557;28;21103;-83
2022/07/12 06:53:02;;;;;;;23.50;20.53;;;19.30;99.90;;;;;;5009760;28;20454;-82
2022/07/12 06:55:41;;;;;;;24.27;19.77;;;19.30;99.90;;;;;;5008121;28;20968;-81
2022/07/12 06:58:08;;;;;;;21.80;19.57;;;19.30;99.90;;;;;;5011948;28;20484;-83
2022/07/12 07:00:35;;;;;;;19.67;17.83;;;19.30;99.90;;;;;;5010351;28;20466;-82
2022/07/12 07:03:02;;;;;;;19.60;17.60;;;19.30;99.90;;;;;;5008784;28;20504;-81
2022/07/12 07:05:28;;;;;;;20.60;18.70;;;19.10;99.90;;;;;;5009124;28;20513;-80
2022/07/12 07:08:01;;;;;;;20.33;18.30;;;19.60;99.90;;;;;;5004688;28;20478;-80
2022/07/12 07:10:49;;;;;;;19.80;17.80;;;19.90;99.90;;;;;;4996575;28;20581;-81
2022/07/12 07:13:18;;;;;;;19.47;16.67;;;20.00;99.90;;;;;;5007255;28;20924;-80
2022/07/12 07:15:46;;;;;;;19.30;16.60;;;20.20;99.90;;;;;;5011047;28;20537;-82
2022/07/12 07:18:12;;;;;;;19.83;17.73;;;20.30;99.90;;;;;;5005889;28;20474;-81
2022/07/12 07:20:40;;;;;;;19.27;17.43;;;20.50;99.90;;;;;;5013108;28;20490;-81
2022/07/12 07:23:07;;;;;;;17.47;15.67;;;20.60;99.90;;;;;;5010703;28;20469;-83
2022/07/12 07:25:34;;;;;;;18.13;16.43;;;20.70;99.90;;;;;;5011375;28;20478;-83
2022/07/12 07:28:00;;;;;;;19.93;17.83;;;20.80;99.90;;;;;;5008318;28;20473;-81
2022/07/12 07:33:13;;;;;;;17.40;15.70;;;20.80;99.90;;;;;;5005133;28;20450;-81
2022/07/12 07:35:43;;;;;;;17.07;15.30;;;20.90;99.90;;;;;;5013433;28;20887;-80
2022/07/12 07:38:15;;;;;;;17.90;16.00;;;21.00;99.80;;;;;;5015202;28;20482;-81
2022/07/12 07:40:42;;;;;;;17.53;15.73;;;21.10;99.70;;;;;;5017512;28;20462;-81
2022/07/12 07:43:09;;;;;;;16.17;14.57;;;21.10;99.60;;;;;;5012297;28;20846;-82
2022/07/12 07:45:43;;;;;;;16.30;14.60;;;21.10;99.70;;;;;;5013347;28;20503;-82
2022/07/12 07:48:09;;;;;;;16.00;14.50;;;21.20;99.30;;;;;;5012617;28;20477;-81
2022/07/12 07:50:49;;;;;;;14.27;12.70;;;21.50;98.70;;;;;;5007363;28;20462;-82
2022/07/12 07:53:16;;;;;;;15.90;14.17;;;21.60;98.50;;;;;;5010222;28;21047;-82
2022/07/12 07:55:43;;;;;;;15.57;14.07;;;21.60;98.10;;;;;;5014357;28;20529;-82
2022/07/12 07:58:09;;;;;;;14.63;13.33;;;21.50;98.40;;;;;;5018003;28;20481;-80
2022/07/12 08:00:36;;;;;;;14.67;13.37;;;21.50;98.70;;;;;;5006342;28;20454;-83
2022/07/12 08:03:03;;;;;;;9.93;9.03;;;21.50;98.70;;;;;;5015554;28;20923;-83
2022/07/12 08:05:29;;;;;;;14.47;13.03;;;21.70;98.10;;;;;;5013751;28;20486;-84
2022/07/12 08:07:56;;;;;;;9.87;8.97;;;21.90;97.00;;;;;;5011731;28;20473;-83
2022/07/12 08:10:25;;;;;;;10.00;9.20;;;22.10;97.00;;;;;;5012998;28;20487;-83
2022/07/12 08:12:52;;;;;;;10.40;9.50;;;22.20;96.70;;;;;;5016722;28;20528;-83
2022/07/12 08:15:18;;;;;;;9.50;8.70;;;22.40;96.30;;;;;;5013258;28;20454;-82
2022/07/12 08:17:45;;;;;;;14.83;13.27;;;22.50;96.10;;;;;;5011689;28;21008;-83
2022/07/12 08:20:18;;;;;;;8.80;8.00;;;22.70;95.70;;;;;;5007775;28;20532;-82
2022/07/12 08:23:05;;;;;;;8.97;8.10;;;22.90;95.70;;;;;;5005650;28;20454;-83
2022/07/12 08:25:32;;;;;;;9.30;8.47;;;22.90;95.00;;;;;;5013846;28;20609;-82
2022/07/12 08:27:59;;;;;;;8.57;7.77;;;23.50;94.40;;;;;;5019502;28;20454;-81
2022/07/12 08:30:26;;;;;;;7.20;6.60;;;23.80;93.60;;;;;;5007861;28;20442;-82
2022/07/12 08:32:54;;;;;;;7.87;7.17;;;23.80;93.40;;;;;;5012448;28;20435;-81
2022/07/12 08:35:21;;;;;;;8.63;7.83;;;24.20;92.30;;;;;;5015467;28;20859;-82
2022/07/12 08:37:48;;;;;;;8.17;7.47;;;24.60;91.40;;;;;;5015315;28;20804;-81
2022/07/12 08:40:15;;;;;;;7.60;7.00;;;24.70;91.10;;;;;;5012483;28;20489;-81
2022/07/12 08:42:43;;;;;;;6.87;6.37;;;24.50;91.10;;;;;;5003578;28;20988;-81
2022/07/12 08:45:10;;;;;;;8.70;7.90;;;24.40;91.30;;;;;;5012200;28;20455;-81
2022/07/12 08:47:37;;;;;;;8.30;7.63;;;24.90;90.40;;;;;;5009284;28;20481;-82
2022/07/12 08:50:18;;;;;;;9.17;8.47;;;24.90;90.00;;;;;;5012352;28;20451;-81
2022/07/12 08:52:49;;;;;;;8.93;8.23;;;25.50;88.00;;;;;;5005188;28;20447;-83
2022/07/12 08:55:34;;;;;;;7.40;6.80;;;25.50;86.20;;;;;;5012716;28;20454;-81
2022/07/12 08:58:03;;;;;;;6.90;6.40;;;25.90;83.60;;;;;;5009091;28;20459;-81
2022/07/12 09:00:31;;;;;;;6.03;5.53;;;25.90;80.30;;;;;;5007015;28;20521;-81
2022/07/12 09:02:59;;;;;;;4.73;4.43;;;26.10;79.60;;;;;;5009943;28;20453;-81
2022/07/12 09:05:30;;;;;;;3.83;3.57;;;26.00;79.60;;;;;;5004527;28;20620;-83
2022/07/12 09:08:09;;;;;;;2.57;2.33;;;27.00;77.70;;;;;;5004349;28;20482;-83
2022/07/12 09:10:56;;;;;;;3.93;3.67;;;27.50;71.10;;;;;;5007358;28;20455;-83
2022/07/12 09:13:45;;;;;;;4.10;3.87;;;27.60;71.50;;;;;;5012031;28;20453;-84
2022/07/12 09:16:13;;;;;;;2.50;2.30;;;27.50;71.80;;;;;;5009806;28;20481;-83
2022/07/12 09:18:40;;;;;;;2.00;1.90;;;28.60;66.20;;;;;;5004655;28;20494;-83
2022/07/12 09:21:27;;;;;;;3.23;2.87;;;29.20;62.40;;;;;;5001746;28;20520;-83
2022/07/12 09:23:56;;;;;;;2.00;1.80;;;29.50;61.40;;;;;;5005781;28;20450;-83
2022/07/12 09:26:31;;;;;;;1.67;1.57;;;30.60;56.60;;;;;;5001462;28;20487;-84
2022/07/12 09:29:12;;;;;;;0.90;0.90;;;31.40;53.40;;;;;;5008920;28;20507;-84
2022/07/12 09:37:21;;;;;;;2.13;1.93;;;31.40;51.90;;;;;;5012031;28;20486;-83
2022/07/12 09:39:49;;;;;;;1.73;1.63;;;31.10;52.20;;;;;;5012114;28;20447;-82
2022/07/12 09:42:15;;;;;;;2.20;2.10;;;30.80;52.20;;;;;;5013215;28;20470;-83
2022/07/12 09:44:44;;;;;;;2.07;1.97;;;32.40;50.50;;;;;;5005201;28;20461;-82
2022/07/12 09:47:13;;;;;;;2.03;1.93;;;32.90;49.40;;;;;;5010883;28;20957;-82
2022/07/12 09:49:46;;;;;;;2.87;2.67;;;33.10;48.80;;;;;;5014187;28;20438;-83
2022/07/12 09:52:26;;;;;;;2.20;2.10;;;33.90;47.50;;;;;;5004029;28;20544;-83
2022/07/12 09:54:55;;;;;;;1.80;1.70;;;33.70;47.20;;;;;;5000634;28;20561;-82
2022/07/12 09:57:26;;;;;;;2.50;2.30;;;33.60;45.60;;;;;;5013419;28;20474;-83
2022/07/12 09:59:57;;;;;;;2.47;2.20;;;33.00;47.40;;;;;;5008809;28;20450;-84
2022/07/12 10:02:24;;;;;;;2.70;2.00;;;32.60;47.20;;;;;;5010199;28;20605;-83
2022/07/12 10:04:52;;;;;;;2.03;1.93;;;32.00;47.90;;;;;;5005641;28;20479;-81
2022/07/12 10:07:22;;;;;;;2.20;2.10;;;31.50;47.50;;;;;;5014827;28;20500;-83
2022/07/12 10:09:54;;;;;;;2.20;2.10;;;33.30;46.50;;;;;;5013371;28;20446;-82
2022/07/12 10:12:23;;;;;;;2.90;2.30;;;34.20;45.40;;;;;;5011673;28;20477;-81
2022/07/12 10:14:57;;;;;;;1.93;1.83;;;34.40;44.50;;;;;;5005594;28;20446;-83
2022/07/12 10:17:27;;;;;;;2.97;1.83;;;34.70;43.70;;;;;;5009538;28;21023;-83
2022/07/12 10:20:17;;;;;;;2.00;1.80;;;34.00;43.90;;;;;;5009545;28;20481;-81
2022/07/12 10:22:45;;;;;;;2.13;2.03;;;33.20;45.00;;;;;;5006865;28;20455;-83
2022/07/12 10:25:32;;;;;;;3.00;2.77;;;34.10;44.30;;;;;;5008258;28;20821;-82
2022/07/12 10:27:59;;;;;;;2.57;2.40;;;33.10;44.90;;;;;;5005883;28;20469;-84
2022/07/12 10:30:43;;;;;;;2.57;2.30;;;31.80;46.80;;;;;;5007387;28;20450;-82
2022/07/12 10:33:21;;;;;;;2.07;1.80;;;32.60;47.20;;;;;;5009443;28;20473;-82
2022/07/12 10:36:06;;;;;;;1.93;1.83;;;33.30;45.00;;;;;;5011647;28;20537;-84
2022/07/12 10:38:39;;;;;;;2.10;2.00;;;33.80;44.00;;;;;;5009656;28;20513;-83
2022/07/12 10:41:21;;;;;;;2.80;2.10;;;33.50;44.10;;;;;;5005944;28;20457;-83
2022/07/12 10:44:06;;;;;;;2.27;1.97;;;33.10;44.10;;;;;;5005091;28;20458;-82
2022/07/12 10:46:34;;;;;;;2.47;2.37;;;33.00;44.70;;;;;;5003508;28;20481;-82
2022/07/12 10:49:27;;;;;;;2.73;2.50;;;33.10;44.60;;;;;;5013954;28;20473;-81
2022/07/12 10:52:13;;;;;;;2.63;2.43;;;32.60;45.20;;;;;;5011038;28;20473;-83
2022/07/12 10:54:41;;;;;;;2.70;2.60;;;32.80;44.50;;;;;;5007014;28;20442;-82
2022/07/12 10:57:08;;;;;;;2.20;2.10;;;32.70;45.40;;;;;;5010336;28;20580;-83
2022/07/12 10:59:38;;;;;;;2.30;2.10;;;32.30;45.70;;;;;;5011367;28;20458;-80
2022/07/12 11:02:14;;;;;;;2.40;1.87;;;33.10;44.80;;;;;;5012103;28;20461;-82
2022/07/12 11:04:50;;;;;;;2.07;1.97;;;33.00;44.70;;;;;;5012288;28;20465;-80
2022/07/12 11:07:18;;;;;;;2.27;1.90;;;32.80;44.00;;;;;;5016537;28;20482;-81
2022/07/12 11:09:45;;;;;;;1.97;1.67;;;33.20;43.90;;;;;;5022439;28;20443;-83
2022/07/12 11:12:14;;;;;;;2.10;2.00;;;33.80;42.70;;;;;;5025793;28;20529;-81
2022/07/12 11:14:45;;;;;;;2.20;2.00;;;34.10;41.60;;;;;;5008508;28;20850;-85
2022/07/12 11:17:12;;;;;;;2.20;2.10;;;33.30;42.50;;;;;;5002905;28;20475;-83
2022/07/12 11:19:39;;;;;;;2.27;2.07;;;33.40;42.70;;;;;;5013806;28;20820;-83
2022/07/12 11:22:06;;;;;;;3.57;3.33;;;33.50;42.30;;;;;;5010504;28;20534;-83
2022/07/12 11:24:37;;;;;;;2.57;1.80;;;33.70;42.20;;;;;;5013368;28;20456;-86
2022/07/12 11:27:05;;;;;;;2.10;2.00;;;34.20;41.40;;;;;;5027813;28;20879;-85
2022/07/12 11:29:32;;;;;;;1.90;1.80;;;33.70;41.70;;;;;;5025232;28;20458;-86
2022/07/12 11:32:01;;;;;;;2.70;1.90;;;33.70;42.30;;;;;;5023842;28;20526;-85
2022/07/12 11:34:34;;;;;;;2.47;2.33;;;33.90;41.50;;;;;;5019411;28;20473;-84
2022/07/12 11:37:01;;;;;;;2.23;2.03;;;33.70;41.70;;;;;;5016969;28;20462;-86
2022/07/12 11:39:39;;;;;;;1.90;1.80;;;33.20;42.10;;;;;;5021356;28;20522;-85
2022/07/12 11:42:08;;;;;;;2.90;1.90;;;33.20;42.00;;;;;;5014093;28;20454;-84
2022/07/12 11:44:46;;;;;;;2.13;2.03;;;33.00;42.40;;;;;;5020770;28;20450;-85
2022/07/12 11:47:15;;;;;;;2.00;1.90;;;33.70;40.90;;;;;;5014725;28;20481;-84
2022/07/12 11:49:47;;;;;;;2.00;1.90;;;33.50;41.80;;;;;;5022108;28;20461;-86
2022/07/12 11:52:17;;;;;;;2.20;2.10;;;33.70;41.40;;;;;;5013969;28;20450;-86
2022/07/12 11:54:49;;;;;;;2.30;2.10;;;33.50;41.70;;;;;;5016649;28;20494;-86
2022/07/12 11:57:20;;;;;;;2.43;2.23;;;33.40;41.50;;;;;;5014941;28;20469;-85
2022/07/12 11:59:47;;;;;;;1.77;1.67;;;33.20;41.60;;;;;;5014842;28;20462;-86
2022/07/12 12:02:16;;;;;;;1.77;1.67;;;33.20;40.20;;;;;;5020490;28;20454;-87
2022/07/12 12:04:51;;;;;;;1.67;1.57;;;33.10;39.10;;;;;;5020454;28;20454;-87
2022/07/12 12:07:20;;;;;;;1.53;1.43;;;32.50;40.40;;;;;;5024193;28;20493;-86
2022/07/12 12:10:13;;;;;;;1.80;1.70;;;33.10;39.20;;;;;;5019040;28;20452;-86
2022/07/12 12:12:52;;;;;;;1.77;1.63;;;33.00;39.00;;;;;;5014297;28;20490;-87
2022/07/12 12:15:26;;;;;;;2.00;1.90;;;33.00;39.50;;;;;;5014322;28;20454;-87
2022/07/12 12:18:02;;;;;;;1.80;1.70;;;33.00;39.40;;;;;;5018292;28;20474;-86
2022/07/12 12:20:41;;;;;;;2.00;1.87;;;33.40;39.30;;;;;;5049173;22;20582;-84
2022/07/12 12:23:20;;;;;;;1.90;1.80;;;33.90;38.70;;;;;;5042301;28;20442;-86
2022/07/12 12:26:20;;;;;;;1.90;1.80;;;33.20;39.10;;;;;;5035714;28;20449;-84
2022/07/12 12:28:54;;;;;;;2.10;1.90;;;33.10;39.30;;;;;;5043613;28;20461;-84
2022/07/12 12:31:23;;;;;;;1.80;1.70;;;32.80;38.50;;;;;;5050907;28;20450;-85
2022/07/12 12:33:52;;;;;;;1.87;1.70;;;33.00;39.50;;;;;;5047476;28;20441;-87
2022/07/12 12:36:22;;;;;;;2.30;2.03;;;33.00;39.40;;;;;;5044848;28;20935;-87
2022/07/12 12:39:00;;;;;;;2.50;1.90;;;32.50;39.40;;;;;;5039946;28;20493;-86
2022/07/12 12:41:38;;;;;;;2.30;1.60;;;32.20;40.20;;;;;;5039919;28;20518;-85
2022/07/12 12:44:12;;;;;;;2.73;2.53;;;32.20;39.50;;;;;;5039450;28;20480;-86
2022/07/12 12:46:46;;;;;;;3.83;1.90;;;31.90;39.90;;;;;;5056328;28;20469;-85
2022/07/12 12:49:13;;;;;;;1.90;1.80;;;31.80;40.20;;;;;;5039547;28;20516;-87
2022/07/12 12:51:58;;;;;;;2.17;1.97;;;31.90;40.50;;;;;;5039861;28;20454;-87
2022/07/12 12:54:36;;;;;;;1.30;1.30;;;32.50;39.60;;;;;;5041455;28;20449;-88
2022/07/12 12:57:07;;;;;;;1.30;1.30;;;32.10;38.60;;;;;;5044548;28;20448;-86